Flugplatz Hannover

Bericht für EDDV

vom 24.05. um 05:20 UTC

Wind 8 kt aus 70°

Sichtweite 10 km oder mehr

gute Sicht, keine Wolken < 5000 ft, keine CB, keine Wettererscheinungen (CAVOK)

Temperatur 14.0°C

Taupunkt 8.0°C

Luftfeuchtigkeit 67%

Luftdruck 1022 hPa

keine wesentliche Wetteränderung innerhalb den nächsten 2 Stunden zu erwarten

EDDV 240520Z 07008KT CAVOK 14/08 Q1022 NOSIG

Prognose für EDDV

vom 23.05. um 23:00 UTC

Zwischen 00:00 UTC und 08:00 UTC

Wind 7 kt aus 60°

Sichtweite 10 km oder mehr

keine signifikanten Wettererscheinungen

keine Wolken


Zwischen 08:00 und 10:00 UTC übergehend zu

Wind 13 kt aus 80°

Sichtweite 10 km oder mehr

keine signifikanten Wettererscheinungen

keine Wolken


Zwischen 09:00 UTC und 17:00 UTC zeitweise

Wind 15 kt aus 90° in Böen 25 kt


Zwischen 17:00 UTC und 00:00 UTC zeitweise mit einer Wahrscheinlichkeit von 30%

Wind 15 kt aus 90° in Böen 30 kt

Code: TSRA

aufgebrochene Bewölkung in 3000 ft


Zwischen 19:00 und 21:00 UTC übergehend zu

Wind 6 kt aus 70°

Sichtweite 10 km oder mehr

keine signifikanten Wettererscheinungen

keine Wolken

TAF EDDV 232300Z 2400/2424 06007KT CAVOK BECMG 2408/2410 08013KT TEMPO 2409/2417 09015G25KT PROB30 TEMPO 2417/2424 09015G30KT -TSRA BKN030CB BECMG 2419/2421 07006KT
Impressum